Time,TemperatureF,DewpointF,PressureIn,WindDirection,WindDirectionDegrees,WindSpeedMPH,WindSpeedGustMPH,Humidity,HourlyPrecipIn,Conditions,Clouds,dailyrainin,SoftwareType,DateUTC
2013-08-11 00:05:00,57.1,49.6,29.93,NE,39,0.0,24.0,76,0.00,,,0.00,Wunderground v.1.15,2013-08-11 04:05:00,
2013-08-11 00:10:00,56.7,49.6,29.94,NE,39,0.0,24.0,77,0.00,,,0.00,Wunderground v.1.15,2013-08-11 04:10:00,
2013-08-11 00:15:00,56.4,49.6,29.94,NE,39,0.0,24.0,78,0.00,,,0.00,Wunderground v.1.15,2013-08-11 04:15:00,
2013-08-11 00:20:00,56.1,49.3,29.94,NW,314,0.0,24.0,78,0.00,,,0.00,Wunderground v.1.15,2013-08-11 04:20:00,
2013-08-11 00:25:00,56.0,49.2,29.94,NW,314,0.0,24.0,78,0.00,,,0.00,Wunderground v.1.15,2013-08-11 04:25:00,
2013-08-11 00:30:00,56.0,49.6,29.94,NW,314,0.0,24.0,79,0.00,,,0.00,Wunderground v.1.15,2013-08-11 04:30:00,
2013-08-11 00:35:00,55.9,49.5,29.94,NW,314,0.0,24.0,79,0.00,,,0.00,Wunderground v.1.15,2013-08-11 04:35:00,
2013-08-11 00:40:00,55.7,49.6,29.94,NW,314,0.0,24.0,80,0.00,,,0.00,Wunderground v.1.15,2013-08-11 04:40:00,
2013-08-11 00:45:00,55.4,49.3,29.94,NW,314,0.0,24.0,80,0.00,,,0.00,Wunderground v.1.15,2013-08-11 04:45:00,
2013-08-11 00:55:00,54.7,49.3,29.93,NW,314,0.0,24.0,82,0.00,,,0.00,Wunderground v.1.15,2013-08-11 04:55:00,
2013-08-11 01:00:00,54.4,49.0,29.94,NW,314,0.0,24.0,82,0.00,,,0.00,Wunderground v.1.15,2013-08-11 05:00:00,
2013-08-11 01:10:00,54.2,49.1,29.94,NW,314,0.0,24.0,83,0.00,,,0.00,Wunderground v.1.15,2013-08-11 05:10:00,
2013-08-11 01:15:00,54.0,49.0,29.94,NW,314,0.0,24.0,83,0.00,,,0.00,Wunderground v.1.15,2013-08-11 05:15:00,
2013-08-11 01:25:00,53.9,49.2,29.94,NW,314,0.0,24.0,84,0.00,,,0.00,Wunderground v.1.15,2013-08-11 05:25:00,
2013-08-11 01:30:00,53.8,49.1,29.94,NW,314,0.0,24.0,84,0.00,,,0.00,Wunderground v.1.15,2013-08-11 05:30:00,
2013-08-11 01:35:00,53.7,49.0,29.94,NW,314,0.0,24.0,84,0.00,,,0.00,Wunderground v.1.15,2013-08-11 05:35:00,
2013-08-11 01:40:00,53.5,49.1,29.94,NW,314,0.0,24.0,85,0.00,,,0.00,Wunderground v.1.15,2013-08-11 05:40:00,
2013-08-11 01:45:00,53.4,49.0,29.94,NW,314,0.0,24.0,85,0.00,,,0.00,Wunderground v.1.15,2013-08-11 05:45:00,
2013-08-11 01:50:00,53.3,49.5,29.94,NW,314,0.0,24.0,87,0.00,,,0.00,Wunderground v.1.15,2013-08-11 05:50:00,
2013-08-11 01:55:00,53.2,49.7,29.94,NW,314,0.0,24.0,88,0.00,,,0.00,Wunderground v.1.15,2013-08-11 05:55:00,
2013-08-11 02:00:00,53.0,49.5,29.94,NW,314,0.0,24.0,88,0.00,,,0.00,Wunderground v.1.15,2013-08-11 06:00:00,
2013-08-11 02:10:00,52.6,49.4,29.95,NW,314,0.0,24.0,89,0.00,,,0.00,Wunderground v.1.15,2013-08-11 06:10:00,
2013-08-11 02:15:00,52.4,49.6,29.95,NW,314,0.0,24.0,90,0.00,,,0.00,Wunderground v.1.15,2013-08-11 06:15:00,
2013-08-11 02:20:00,52.3,49.5,29.95,NW,314,0.0,24.0,90,0.00,,,0.00,Wunderground v.1.15,2013-08-11 06:20:00,
2013-08-11 02:25:00,52.2,49.4,29.95,NW,314,0.0,24.0,90,0.00,,,0.00,Wunderground v.1.15,2013-08-11 06:25:00,
2013-08-11 02:30:00,52.2,49.4,29.94,NW,314,0.0,24.0,90,0.00,,,0.00,Wunderground v.1.15,2013-08-11 06:30:00,
2013-08-11 02:40:00,52.2,49.4,29.94,NW,314,0.0,24.0,90,0.00,,,0.00,Wunderground v.1.15,2013-08-11 06:40:00,
2013-08-11 02:45:00,52.1,49.3,29.94,NW,314,0.0,24.0,90,0.00,,,0.00,Wunderground v.1.15,2013-08-11 06:45:00,
2013-08-11 02:55:00,52.3,49.2,29.94,NW,314,0.0,24.0,89,0.00,,,0.00,Wunderground v.1.15,2013-08-11 06:55:00,
2013-08-11 03:00:00,52.5,49.0,29.94,NW,314,0.0,24.0,88,0.00,,,0.00,Wunderground v.1.15,2013-08-11 07:00:00,
2013-08-11 03:05:00,52.8,49.0,29.94,WSW,245,0.0,24.0,87,0.00,,,0.00,Wunderground v.1.15,2013-08-11 07:05:00,
2013-08-11 03:15:00,53.2,49.1,29.94,WSW,245,0.0,24.0,86,0.00,,,0.00,Wunderground v.1.15,2013-08-11 07:15:00,
2013-08-11 03:20:00,53.1,49.0,29.94,WSW,245,0.0,24.0,86,0.00,,,0.00,Wunderground v.1.15,2013-08-11 07:20:00,
2013-08-11 03:25:00,52.9,48.8,29.94,WSW,245,0.0,24.0,86,0.00,,,0.00,Wunderground v.1.15,2013-08-11 07:25:00,
2013-08-11 03:35:00,53.2,48.8,29.94,WSW,243,1.0,24.0,85,0.00,,,0.00,Wunderground v.1.15,2013-08-11 07:35:00,
2013-08-11 03:40:00,53.5,48.8,29.95,WSW,251,1.0,1.0,84,0.00,,,0.00,Wunderground v.1.15,2013-08-11 07:40:00,
2013-08-11 03:45:00,53.8,49.1,29.95,WSW,251,1.0,24.0,84,0.00,,,0.00,Wunderground v.1.15,2013-08-11 07:45:00,
2013-08-11 03:55:00,53.7,48.7,29.95,West,266,1.0,5.0,83,0.00,,,0.00,Wunderground v.1.15,2013-08-11 07:55:00,
2013-08-11 04:00:00,53.7,48.7,29.94,WNW,283,1.0,1.0,83,0.00,,,0.00,Wunderground v.1.15,2013-08-11 08:00:00,
2013-08-11 04:05:00,53.7,48.7,29.94,West,281,1.0,2.0,83,0.00,,,0.00,Wunderground v.1.15,2013-08-11 08:05:00,
2013-08-11 04:15:00,53.7,48.7,29.95,WNW,282,1.0,24.0,83,0.00,,,0.00,Wunderground v.1.15,2013-08-11 08:15:00,
2013-08-11 04:25:00,53.7,48.7,29.95,WSW,237,1.0,24.0,83,0.00,,,0.00,Wunderground v.1.15,2013-08-11 08:25:00,
2013-08-11 04:35:00,53.7,48.7,29.95,West,270,1.0,24.0,83,0.00,,,0.00,Wunderground v.1.15,2013-08-11 08:35:00,
2013-08-11 04:40:00,54.1,49.1,29.95,West,272,1.0,24.0,83,0.00,,,0.00,Wunderground v.1.15,2013-08-11 08:40:00,
2013-08-11 04:50:00,54.3,48.9,29.95,West,277,1.0,24.0,82,0.00,,,0.00,Wunderground v.1.15,2013-08-11 08:50:00,
2013-08-11 04:55:00,54.3,48.9,29.95,West,277,1.0,24.0,82,0.00,,,0.00,Wunderground v.1.15,2013-08-11 08:55:00,
2013-08-11 05:00:00,54.3,48.9,29.95,West,274,1.0,1.0,82,0.00,,,0.00,Wunderground v.1.15,2013-08-11 09:00:00,
2013-08-11 05:05:00,54.2,49.1,29.95,WNW,291,1.0,24.0,83,0.00,,,0.00,Wunderground v.1.15,2013-08-11 09:05:00,
2013-08-11 05:15:00,53.9,48.9,29.96,WNW,291,0.0,24.0,83,0.00,,,0.00,Wunderground v.1.15,2013-08-11 09:15:00,
2013-08-11 05:20:00,53.7,49.0,29.96,WNW,291,0.0,24.0,84,0.00,,,0.00,Wunderground v.1.15,2013-08-11 09:20:00,
2013-08-11 05:25:00,53.5,48.8,29.96,WNW,291,0.0,24.0,84,0.00,,,0.00,Wunderground v.1.15,2013-08-11 09:25:00,
2013-08-11 05:35:00,52.8,48.7,29.96,WNW,291,0.0,24.0,86,0.00,,,0.00,Wunderground v.1.15,2013-08-11 09:35:00,
2013-08-11 05:45:00,52.0,48.6,29.97,WNW,291,0.0,24.0,88,0.00,,,0.00,Wunderground v.1.15,2013-08-11 09:45:00,
2013-08-11 05:55:00,51.4,48.3,29.97,WNW,291,0.0,24.0,89,0.00,,,0.00,Wunderground v.1.15,2013-08-11 09:55:00,
2013-08-11 06:05:00,51.3,48.5,29.97,WNW,291,0.0,24.0,90,0.00,,,0.00,Wunderground v.1.15,2013-08-11 10:05:00,
2013-08-11 06:10:00,51.2,48.4,29.97,WNW,291,0.0,24.0,90,0.00,,,0.00,Wunderground v.1.15,2013-08-11 10:10:00,
2013-08-11 06:15:00,51.2,48.7,29.97,WNW,291,0.0,24.0,91,0.00,,,0.00,Wunderground v.1.15,2013-08-11 10:15:00,
2013-08-11 06:20:00,51.2,48.7,29.97,WNW,291,0.0,24.0,91,0.00,,,0.00,Wunderground v.1.15,2013-08-11 10:20:00,
2013-08-11 06:30:00,51.4,48.9,29.97,WNW,291,0.0,24.0,91,0.00,,,0.00,Wunderground v.1.15,2013-08-11 10:30:00,
2013-08-11 06:35:00,51.4,48.9,29.98,WNW,291,0.0,24.0,91,0.00,,,0.00,Wunderground v.1.15,2013-08-11 10:35:00,
2013-08-11 06:40:00,51.4,48.9,29.98,WNW,291,0.0,24.0,91,0.00,,,0.00,Wunderground v.1.15,2013-08-11 10:40:00,
2013-08-11 06:50:00,51.4,48.9,29.98,WNW,291,0.0,24.0,91,0.00,,,0.00,Wunderground v.1.15,2013-08-11 10:50:00,
2013-08-11 07:05:00,51.6,49.1,29.99,WNW,291,0.0,24.0,91,0.00,,,0.00,Wunderground v.1.15,2013-08-11 11:05:00,
2013-08-11 07:15:00,51.7,49.2,29.99,WNW,291,0.0,24.0,91,0.00,,,0.00,Wunderground v.1.15,2013-08-11 11:15:00,
2013-08-11 07:20:00,51.8,49.3,29.99,WNW,291,0.0,24.0,91,0.00,,,0.00,Wunderground v.1.15,2013-08-11 11:20:00,
2013-08-11 07:25:00,52.3,49.8,29.99,WNW,291,0.0,24.0,91,0.00,,,0.00,Wunderground v.1.15,2013-08-11 11:25:00,
2013-08-11 07:35:00,54.0,50.5,29.99,WNW,291,0.0,24.0,88,0.00,,,0.00,Wunderground v.1.15,2013-08-11 11:35:00,
2013-08-11 07:40:00,54.5,50.4,29.99,WNW,291,0.0,24.0,86,0.00,,,0.00,Wunderground v.1.15,2013-08-11 11:40:00,
2013-08-11 07:45:00,54.8,50.4,29.99,WNW,291,1.0,24.0,85,0.00,,,0.00,Wunderground v.1.15,2013-08-11 11:45:00,
2013-08-11 07:50:00,55.0,50.6,29.99,WNW,291,1.0,1.0,85,0.00,,,0.00,Wunderground v.1.15,2013-08-11 11:50:00,
2013-08-11 08:00:00,56.0,51.2,29.99,WNW,294,0.0,24.0,84,0.00,,,0.00,Wunderground v.1.15,2013-08-11 12:00:00,
2013-08-11 08:05:00,56.6,51.2,29.99,WNW,294,1.0,24.0,82,0.00,,,0.00,Wunderground v.1.15,2013-08-11 12:05:00,
2013-08-11 08:10:00,56.9,51.1,29.99,WNW,294,1.0,1.0,81,0.00,,,0.00,Wunderground v.1.15,2013-08-11 12:10:00,
2013-08-11 08:19:00,57.6,52.1,29.99,WNW,294,0.0,24.0,82,0.00,,,0.00,Wunderground v.1.15,2013-08-11 12:19:00,
2013-08-11 08:25:00,58.0,52.5,29.99,WNW,294,0.0,24.0,82,0.00,,,0.00,Wunderground v.1.15,2013-08-11 12:25:00,
2013-08-11 08:30:00,58.8,53.3,29.99,WNW,294,0.0,24.0,82,0.00,,,0.00,Wunderground v.1.15,2013-08-11 12:30:00,
2013-08-11 08:40:00,60.2,53.7,29.99,West,262,0.0,24.0,79,0.00,,,0.00,Wunderground v.1.15,2013-08-11 12:40:00,
2013-08-11 08:45:00,60.5,53.3,29.99,SW,226,1.0,24.0,77,0.00,,,0.00,Wunderground v.1.15,2013-08-11 12:45:00,
2013-08-11 08:50:00,60.7,53.8,29.99,SW,226,1.0,1.0,78,0.00,,,0.00,Wunderground v.1.15,2013-08-11 12:50:00,
2013-08-11 09:00:00,61.6,54.3,29.99,SW,226,1.0,1.0,77,0.00,,,0.00,Wunderground v.1.15,2013-08-11 13:00:00,
2013-08-11 09:05:00,61.9,53.9,29.99,SW,229,1.0,2.0,75,0.00,,,0.00,Wunderground v.1.15,2013-08-11 13:05:00,
2013-08-11 09:15:00,62.0,54.3,29.99,SW,229,2.0,2.0,76,0.00,,,0.00,Wunderground v.1.15,2013-08-11 13:15:00,
2013-08-11 09:20:00,62.2,54.5,29.99,WSW,239,2.0,2.0,76,0.00,,,0.00,Wunderground v.1.15,2013-08-11 13:20:00,
2013-08-11 09:25:00,62.6,54.6,29.99,SW,232,2.0,24.0,75,0.00,,,0.00,Wunderground v.1.15,2013-08-11 13:25:00,
2013-08-11 09:30:00,63.1,55.0,29.99,SSW,201,1.0,24.0,75,0.00,,,0.00,Wunderground v.1.15,2013-08-11 13:30:00,
2013-08-11 09:35:00,63.4,55.0,29.99,SSW,212,2.0,24.0,74,0.00,,,0.00,Wunderground v.1.15,2013-08-11 13:35:00,
2013-08-11 09:45:00,64.3,54.7,29.99,SW,227,1.0,4.0,71,0.00,,,0.00,Wunderground v.1.15,2013-08-11 13:45:00,
2013-08-11 09:50:00,64.7,54.7,29.99,West,262,1.0,1.0,70,0.00,,,0.00,Wunderground v.1.15,2013-08-11 13:50:00,
2013-08-11 09:55:00,65.5,55.5,29.99,WSW,237,1.0,2.0,70,0.00,,,0.00,Wunderground v.1.15,2013-08-11 13:55:00,
2013-08-11 10:00:00,66.0,55.1,29.99,WSW,239,0.0,24.0,68,0.00,,,0.00,Wunderground v.1.15,2013-08-11 14:00:00,
2013-08-11 10:10:00,66.9,54.7,30.00,WSW,250,1.0,24.0,65,0.00,,,0.00,Wunderground v.1.15,2013-08-11 14:10:00,
2013-08-11 10:15:00,67.1,54.9,29.99,South,174,2.0,24.0,65,0.00,,,0.00,Wunderground v.1.15,2013-08-11 14:15:00,
2013-08-11 10:25:00,68.2,53.3,30.00,SSW,206,1.0,24.0,59,0.00,,,0.00,Wunderground v.1.15,2013-08-11 14:25:00,
2013-08-11 10:30:00,68.6,53.7,29.99,West,266,1.0,1.0,59,0.00,,,0.00,Wunderground v.1.15,2013-08-11 14:30:00,
2013-08-11 10:35:00,69.1,54.6,29.99,SW,222,1.0,2.0,60,0.00,,,0.00,Wunderground v.1.15,2013-08-11 14:35:00,
2013-08-11 10:44:00,69.4,54.9,29.99,SSW,206,3.0,24.0,60,0.00,,,0.00,Wunderground v.1.15,2013-08-11 14:44:00,
2013-08-11 10:50:00,69.2,52.8,29.99,SW,219,3.0,3.0,56,0.00,,,0.00,Wunderground v.1.15,2013-08-11 14:50:00,
2013-08-11 10:59:00,69.0,52.6,29.99,SW,234,2.0,2.0,56,0.00,,,0.00,Wunderground v.1.15,2013-08-11 14:59:00,
2013-08-11 11:05:00,69.5,52.6,29.99,WNW,287,2.0,4.0,55,0.00,,,0.00,Wunderground v.1.15,2013-08-11 15:05:00,
2013-08-11 11:15:00,70.3,53.9,29.99,WSW,245,2.0,24.0,56,0.00,,,0.00,Wunderground v.1.15,2013-08-11 15:15:00,
2013-08-11 11:20:00,70.7,52.7,29.99,SSW,204,3.0,3.0,53,0.00,,,0.00,Wunderground v.1.15,2013-08-11 15:20:00,
2013-08-11 11:25:00,70.6,54.1,29.98,South,179,1.0,24.0,56,0.00,,,0.00,Wunderground v.1.15,2013-08-11 15:25:00,
2013-08-11 11:35:00,71.6,54.6,29.98,WSW,239,1.0,24.0,55,0.00,,,0.00,Wunderground v.1.15,2013-08-11 15:35:00,
2013-08-11 11:40:00,71.6,53.6,29.98,SW,222,1.0,24.0,53,0.00,,,0.00,Wunderground v.1.15,2013-08-11 15:40:00,
2013-08-11 11:50:00,71.4,52.9,29.98,WNW,286,1.0,24.0,52,0.00,,,0.00,Wunderground v.1.15,2013-08-11 15:50:00,
2013-08-11 11:55:00,71.1,53.1,29.98,NNE,24,1.0,24.0,53,0.00,,,0.00,Wunderground v.1.15,2013-08-11 15:55:00,
2013-08-11 12:05:00,71.1,54.6,29.98,SW,226,0.0,24.0,56,0.00,,,0.00,Wunderground v.1.15,2013-08-11 16:05:00,
2013-08-11 12:10:00,71.1,53.6,29.97,SW,226,0.0,24.0,54,0.00,,,0.00,Wunderground v.1.15,2013-08-11 16:10:00,
2013-08-11 12:15:00,71.7,53.1,29.97,SSE,157,0.0,24.0,52,0.00,,,0.00,Wunderground v.1.15,2013-08-11 16:15:00,
2013-08-11 12:20:00,72.3,53.2,29.97,SW,231,0.0,24.0,51,0.00,,,0.00,Wunderground v.1.15,2013-08-11 16:20:00,
2013-08-11 12:30:00,72.2,53.1,29.97,SSW,207,2.0,24.0,51,0.00,,,0.00,Wunderground v.1.15,2013-08-11 16:30:00,
2013-08-11 12:35:00,71.8,52.7,29.97,SW,235,2.0,24.0,51,0.00,,,0.00,Wunderground v.1.15,2013-08-11 16:35:00,
2013-08-11 12:40:00,72.0,50.1,29.97,SW,214,3.0,3.0,46,0.00,,,0.00,Wunderground v.1.15,2013-08-11 16:40:00,
2013-08-11 12:50:00,71.8,51.6,29.96,WSW,244,3.0,3.0,49,0.00,,,0.00,Wunderground v.1.15,2013-08-11 16:50:00,
2013-08-11 12:55:00,72.5,51.1,29.96,WSW,256,3.0,24.0,47,0.00,,,0.00,Wunderground v.1.15,2013-08-11 16:55:00,
2013-08-11 13:05:00,72.5,51.7,29.96,West,267,5.0,6.0,48,0.00,,,0.00,Wunderground v.1.15,2013-08-11 17:05:00,
2013-08-11 13:10:00,72.6,51.2,29.95,ENE,74,4.0,4.0,47,0.00,,,0.00,Wunderground v.1.15,2013-08-11 17:10:00,
2013-08-11 13:19:00,72.9,50.9,29.96,West,278,2.0,24.0,46,0.00,,,0.00,Wunderground v.1.15,2013-08-11 17:19:00,
2013-08-11 13:25:00,72.1,52.4,29.96,SW,220,3.0,24.0,50,0.00,,,0.00,Wunderground v.1.15,2013-08-11 17:25:00,
2013-08-11 13:30:00,72.2,52.0,29.95,WSW,244,4.0,24.0,49,0.00,,,0.00,Wunderground v.1.15,2013-08-11 17:30:00,
2013-08-11 13:40:00,72.2,53.1,29.95,West,276,4.0,24.0,51,0.00,,,0.00,Wunderground v.1.15,2013-08-11 17:40:00,
2013-08-11 13:50:00,73.0,51.6,29.95,WSW,256,5.0,24.0,47,0.00,,,0.00,Wunderground v.1.15,2013-08-11 17:50:00,
2013-08-11 13:55:00,73.1,51.7,29.95,SW,226,4.0,24.0,47,0.00,,,0.00,Wunderground v.1.15,2013-08-11 17:55:00,
2013-08-11 14:00:00,73.2,51.2,29.95,West,270,4.0,24.0,46,0.00,,,0.00,Wunderground v.1.15,2013-08-11 18:00:00,
2013-08-11 14:05:00,72.9,52.6,29.95,WSW,241,5.0,24.0,49,0.00,,,0.00,Wunderground v.1.15,2013-08-11 18:05:00,
2013-08-11 14:15:00,72.6,52.3,29.95,SSW,204,5.0,24.0,49,0.00,,,0.00,Wunderground v.1.15,2013-08-11 18:15:00,
2013-08-11 14:20:00,72.9,52.1,29.95,WSW,256,5.0,24.0,48,0.00,,,0.00,Wunderground v.1.15,2013-08-11 18:20:00,
2013-08-11 14:25:00,73.4,52.5,29.95,WSW,240,5.0,24.0,48,0.00,,,0.00,Wunderground v.1.15,2013-08-11 18:25:00,
2013-08-11 14:30:00,73.4,52.5,29.95,NW,320,5.0,24.0,48,0.00,,,0.00,Wunderground v.1.15,2013-08-11 18:30:00,
2013-08-11 14:40:00,73.5,52.0,29.95,WNW,283,5.0,24.0,47,0.00,,,0.00,Wunderground v.1.15,2013-08-11 18:40:00,
2013-08-11 14:45:00,73.6,50.9,29.95,SSW,212,5.0,24.0,45,0.00,,,0.00,Wunderground v.1.15,2013-08-11 18:45:00,
2013-08-11 14:55:00,74.2,52.7,29.95,SW,229,5.0,24.0,47,0.00,,,0.00,Wunderground v.1.15,2013-08-11 18:55:00,
2013-08-11 15:00:00,74.3,52.8,29.95,WSW,254,5.0,5.0,47,0.00,,,0.00,Wunderground v.1.15,2013-08-11 19:00:00,
2013-08-11 15:05:00,74.6,53.6,29.94,West,260,4.0,6.0,48,0.00,,,0.00,Wunderground v.1.15,2013-08-11 19:05:00,
2013-08-11 15:10:00,74.6,51.9,29.94,SW,222,3.0,3.0,45,0.00,,,0.00,Wunderground v.1.15,2013-08-11 19:10:00,
2013-08-11 15:20:00,73.5,53.2,29.94,West,260,3.0,24.0,49,0.00,,,0.00,Wunderground v.1.15,2013-08-11 19:20:00,
2013-08-11 15:30:00,73.9,53.5,29.94,SW,226,5.0,24.0,49,0.00,,,0.00,Wunderground v.1.15,2013-08-11 19:30:00,
2013-08-11 15:40:00,74.9,53.3,29.94,WNW,289,3.0,3.0,47,0.00,,,0.00,Wunderground v.1.15,2013-08-11 19:40:00,
2013-08-11 15:45:00,75.1,53.5,29.94,West,278,3.0,24.0,47,0.00,,,0.00,Wunderground v.1.15,2013-08-11 19:45:00,
2013-08-11 15:50:00,75.0,54.0,29.93,WSW,241,3.0,24.0,48,0.00,,,0.00,Wunderground v.1.15,2013-08-11 19:50:00,
2013-08-11 16:00:00,74.2,51.5,29.93,West,274,5.0,24.0,45,0.00,,,0.00,Wunderground v.1.15,2013-08-11 20:00:00,
2013-08-11 16:10:00,73.0,53.3,29.93,West,275,4.0,4.0,50,0.00,,,0.00,Wunderground v.1.15,2013-08-11 20:10:00,
2013-08-11 16:20:00,72.6,54.0,29.93,WSW,246,3.0,3.0,52,0.00,,,0.00,Wunderground v.1.15,2013-08-11 20:20:00,
2013-08-11 16:25:00,73.4,53.1,29.93,SW,218,2.0,24.0,49,0.00,,,0.00,Wunderground v.1.15,2013-08-11 20:25:00,
2013-08-11 16:30:00,73.3,53.0,29.93,WSW,245,3.0,24.0,49,0.00,,,0.00,Wunderground v.1.15,2013-08-11 20:30:00,
2013-08-11 16:35:00,73.3,53.5,29.93,West,271,3.0,24.0,50,0.00,,,0.00,Wunderground v.1.15,2013-08-11 20:35:00,
2013-08-11 16:40:00,73.7,53.9,29.93,SSW,201,2.0,2.0,50,0.00,,,0.00,Wunderground v.1.15,2013-08-11 20:40:00,
2013-08-11 16:50:00,75.1,54.1,29.92,WNW,282,2.0,24.0,48,0.00,,,0.00,Wunderground v.1.15,2013-08-11 20:50:00,
2013-08-11 16:55:00,74.8,53.2,29.92,WSW,241,3.0,24.0,47,0.00,,,0.00,Wunderground v.1.15,2013-08-11 20:55:00,
2013-08-11 17:04:00,74.5,53.5,29.92,WNW,283,3.0,24.0,48,0.00,,,0.00,Wunderground v.1.15,2013-08-11 21:04:00,
2013-08-11 17:10:00,74.5,54.1,29.92,West,271,3.0,3.0,49,0.00,,,0.00,Wunderground v.1.15,2013-08-11 21:10:00,
2013-08-11 17:15:00,74.4,53.4,29.92,SW,233,3.0,24.0,48,0.00,,,0.00,Wunderground v.1.15,2013-08-11 21:15:00,
2013-08-11 17:25:00,74.3,52.8,29.92,SSW,209,3.0,24.0,47,0.00,,,0.00,Wunderground v.1.15,2013-08-11 21:25:00,
2013-08-11 17:30:00,74.6,53.6,29.92,WSW,239,3.0,24.0,48,0.00,,,0.00,Wunderground v.1.15,2013-08-11 21:30:00,
2013-08-11 17:35:00,74.6,53.0,29.92,SW,235,3.0,24.0,47,0.00,,,0.00,Wunderground v.1.15,2013-08-11 21:35:00,
2013-08-11 17:40:00,74.6,54.7,29.92,West,273,2.0,2.0,50,0.00,,,0.00,Wunderground v.1.15,2013-08-11 21:40:00,
2013-08-11 17:50:00,74.9,55.0,29.92,SW,225,2.0,2.0,50,0.00,,,0.00,Wunderground v.1.15,2013-08-11 21:50:00,
2013-08-11 18:00:00,74.4,53.4,29.92,SW,215,3.0,3.0,48,0.00,,,0.00,Wunderground v.1.15,2013-08-11 22:00:00,
2013-08-11 18:05:00,74.4,54.5,29.92,South,185,2.0,24.0,50,0.00,,,0.00,Wunderground v.1.15,2013-08-11 22:05:00,
2013-08-11 18:15:00,73.8,54.5,29.92,West,267,2.0,24.0,51,0.00,,,0.00,Wunderground v.1.15,2013-08-11 22:15:00,
2013-08-11 18:20:00,73.8,54.0,29.92,SW,236,2.0,24.0,50,0.00,,,0.00,Wunderground v.1.15,2013-08-11 22:20:00,
2013-08-11 18:25:00,73.4,54.2,29.92,WSW,246,2.0,24.0,51,0.00,,,0.00,Wunderground v.1.15,2013-08-11 22:25:00,
2013-08-11 18:30:00,73.4,54.7,29.91,SW,216,1.0,24.0,52,0.00,,,0.00,Wunderground v.1.15,2013-08-11 22:30:00,
2013-08-11 18:40:00,73.5,54.3,29.91,WSW,245,2.0,24.0,51,0.00,,,0.00,Wunderground v.1.15,2013-08-11 22:40:00,
2013-08-11 18:45:00,73.3,55.1,29.91,WSW,256,2.0,24.0,53,0.00,,,0.00,Wunderground v.1.15,2013-08-11 22:45:00,
2013-08-11 18:50:00,73.1,54.4,29.91,SW,233,2.0,2.0,52,0.00,,,0.00,Wunderground v.1.15,2013-08-11 22:50:00,
2013-08-11 18:55:00,72.9,54.2,29.91,WSW,252,2.0,24.0,52,0.00,,,0.00,Wunderground v.1.15,2013-08-11 22:55:00,
2013-08-11 19:05:00,72.4,54.3,29.91,SW,235,2.0,24.0,53,0.00,,,0.00,Wunderground v.1.15,2013-08-11 23:05:00,
2013-08-11 19:15:00,72.3,54.2,29.91,WSW,251,1.0,24.0,53,0.00,,,0.00,Wunderground v.1.15,2013-08-11 23:15:00,
2013-08-11 19:20:00,72.1,55.0,29.91,SW,222,1.0,24.0,55,0.00,,,0.00,Wunderground v.1.15,2013-08-11 23:20:00,
2013-08-11 19:30:00,71.1,55.1,29.91,SSW,212,1.0,24.0,57,0.00,,,0.00,Wunderground v.1.15,2013-08-11 23:30:00,
2013-08-11 19:40:00,70.1,55.1,29.92,SSW,210,1.0,1.0,59,0.00,,,0.00,Wunderground v.1.15,2013-08-11 23:40:00,
2013-08-11 19:50:00,69.0,55.0,29.92,SSW,210,1.0,24.0,61,0.00,,,0.00,Wunderground v.1.15,2013-08-11 23:50:00,
2013-08-11 19:55:00,68.5,55.0,29.92,SW,221,1.0,24.0,62,0.00,,,0.00,Wunderground v.1.15,2013-08-11 23:55:00,
2013-08-11 20:04:00,67.7,54.6,29.91,SSW,201,1.0,24.0,63,0.00,,,0.00,Wunderground v.1.15,2013-08-12 00:04:00,
2013-08-11 20:10:00,67.4,55.2,29.92,SSW,201,1.0,1.0,65,0.00,,,0.00,Wunderground v.1.15,2013-08-12 00:10:00,
2013-08-11 20:15:00,67.0,54.8,29.91,SSW,206,0.0,24.0,65,0.00,,,0.00,Wunderground v.1.15,2013-08-12 00:15:00,
2013-08-11 20:20:00,66.8,55.1,29.92,SW,235,0.0,24.0,66,0.00,,,0.00,Wunderground v.1.15,2013-08-12 00:20:00,
2013-08-11 20:30:00,66.2,54.9,29.92,SW,233,0.0,24.0,67,0.00,,,0.00,Wunderground v.1.15,2013-08-12 00:30:00,
2013-08-11 20:35:00,65.9,55.0,29.92,SW,233,0.0,24.0,68,0.00,,,0.00,Wunderground v.1.15,2013-08-12 00:35:00,
2013-08-11 20:40:00,65.7,54.8,29.92,SW,234,0.0,24.0,68,0.00,,,0.00,Wunderground v.1.15,2013-08-12 00:40:00,
2013-08-11 20:45:00,65.5,54.7,29.93,SW,233,0.0,24.0,68,0.00,,,0.00,Wunderground v.1.15,2013-08-12 00:45:00,
2013-08-11 20:50:00,65.4,55.0,29.93,SW,234,0.0,24.0,69,0.00,,,0.00,Wunderground v.1.15,2013-08-12 00:50:00,
2013-08-11 20:55:00,65.2,54.8,29.93,SW,233,0.0,24.0,69,0.00,,,0.00,Wunderground v.1.15,2013-08-12 00:55:00,
2013-08-11 21:04:00,64.3,54.7,29.93,SW,233,0.0,24.0,71,0.00,,,0.00,Wunderground v.1.15,2013-08-12 01:04:00,
2013-08-11 21:10:00,63.9,54.7,29.93,SW,233,0.0,24.0,72,0.00,,,0.00,Wunderground v.1.15,2013-08-12 01:10:00,
2013-08-11 21:15:00,63.5,54.3,29.93,SW,234,0.0,24.0,72,0.00,,,0.00,Wunderground v.1.15,2013-08-12 01:15:00,
2013-08-11 21:20:00,63.4,54.2,29.93,South,187,0.0,24.0,72,0.00,,,0.00,Wunderground v.1.15,2013-08-12 01:20:00,
2013-08-11 21:25:00,63.5,54.7,29.93,South,187,0.0,24.0,73,0.00,,,0.00,Wunderground v.1.15,2013-08-12 01:25:00,
2013-08-11 21:30:00,63.3,54.5,29.93,South,187,0.0,24.0,73,0.00,,,0.00,Wunderground v.1.15,2013-08-12 01:30:00,
2013-08-11 21:35:00,63.1,54.3,29.93,South,187,0.0,24.0,73,0.00,,,0.00,Wunderground v.1.15,2013-08-12 01:35:00,
2013-08-11 21:45:00,62.9,54.5,29.94,South,187,0.0,24.0,74,0.00,,,0.00,Wunderground v.1.15,2013-08-12 01:45:00,
2013-08-11 21:55:00,62.9,54.5,29.94,South,186,0.0,24.0,74,0.00,,,0.00,Wunderground v.1.15,2013-08-12 01:55:00,
2013-08-11 22:00:00,63.0,54.6,29.93,South,185,0.0,24.0,74,0.00,,,0.00,Wunderground v.1.15,2013-08-12 02:00:00,
2013-08-11 22:05:00,62.9,54.5,29.94,South,185,0.0,24.0,74,0.00,,,0.00,Wunderground v.1.15,2013-08-12 02:05:00,
2013-08-11 22:10:00,62.8,54.4,29.93,South,186,0.0,24.0,74,0.00,,,0.00,Wunderground v.1.15,2013-08-12 02:10:00,
2013-08-11 22:20:00,62.6,54.6,29.93,SSE,151,0.0,24.0,75,0.00,,,0.00,Wunderground v.1.15,2013-08-12 02:20:00,
2013-08-11 22:25:00,62.5,54.5,29.94,SSE,151,0.0,24.0,75,0.00,,,0.00,Wunderground v.1.15,2013-08-12 02:25:00,
2013-08-11 22:35:00,62.5,54.1,29.93,SSE,151,0.0,24.0,74,0.00,,,0.00,Wunderground v.1.15,2013-08-12 02:35:00,
2013-08-11 22:40:00,62.4,54.4,29.93,SSE,151,0.0,24.0,75,0.00,,,0.00,Wunderground v.1.15,2013-08-12 02:40:00,
2013-08-11 22:45:00,62.3,54.3,29.93,SSE,158,0.0,24.0,75,0.00,,,0.00,Wunderground v.1.15,2013-08-12 02:45:00,
2013-08-11 22:55:00,62.1,54.1,29.93,SSE,158,0.0,24.0,75,0.00,,,0.00,Wunderground v.1.15,2013-08-12 02:55:00,
2013-08-11 23:00:00,62.0,54.0,29.93,SSE,158,0.0,24.0,75,0.00,,,0.00,Wunderground v.1.15,2013-08-12 03:00:00,
2013-08-11 23:05:00,61.9,53.9,29.93,SSE,158,0.0,24.0,75,0.00,,,0.00,Wunderground v.1.15,2013-08-12 03:05:00,
2013-08-11 23:14:00,61.8,53.8,29.93,SSE,158,0.0,24.0,75,0.00,,,0.00,Wunderground v.1.15,2013-08-12 03:14:00,
2013-08-11 23:20:00,61.6,54.3,29.93,WSW,256,0.0,24.0,77,0.00,,,0.00,Wunderground v.1.15,2013-08-12 03:20:00,
2013-08-11 23:25:00,61.2,53.9,29.93,SSW,194,0.0,24.0,77,0.00,,,0.00,Wunderground v.1.15,2013-08-12 03:25:00,
2013-08-11 23:35:00,61.3,53.3,29.93,South,191,0.0,24.0,75,0.00,,,0.00,Wunderground v.1.15,2013-08-12 03:35:00,
2013-08-11 23:40:00,61.3,53.3,29.93,South,191,0.0,24.0,75,0.00,,,0.00,Wunderground v.1.15,2013-08-12 03:40:00,
2013-08-11 23:45:00,60.9,53.3,29.93,South,191,0.0,24.0,76,0.00,,,0.00,Wunderground v.1.15,2013-08-12 03:45:00,
2013-08-11 23:55:00,60.5,53.3,29.94,South,191,0.0,24.0,77,0.00,,,0.00,Wunderground v.1.15,2013-08-12 03:55:00,